createdAt,value
2023-04-02T00:00:35.898Z,99365.23
2023-04-02T00:03:05.877Z,99366.39
2023-04-02T00:05:51.587Z,99364.89
2023-04-02T00:08:28.440Z,99361.98
2023-04-02T00:10:58.333Z,99366.70
2023-04-02T00:13:46.817Z,99361.08
2023-04-02T00:16:18.233Z,99357.81
2023-04-02T00:18:48.989Z,99361.82
2023-04-02T00:21:28.366Z,99359.48
2023-04-02T00:23:57.180Z,99360.47
2023-04-02T00:26:34.335Z,99360.87
2023-04-02T00:29:03.796Z,99361.45
2023-04-02T00:31:38.295Z,99364.48
2023-04-02T00:34:08.395Z,99362.79
2023-04-02T00:36:36.693Z,99362.04
2023-04-02T00:39:11.299Z,99358.98
2023-04-02T00:41:47.261Z,99363.40
2023-04-02T00:44:22.129Z,99366.22
2023-04-02T00:46:50.778Z,99366.99
2023-04-02T00:49:33.098Z,99365.08
2023-04-02T00:52:12.156Z,99366.35
2023-04-02T00:54:51.871Z,99371.54
2023-04-02T00:57:25.595Z,99373.98
2023-04-02T01:00:05.870Z,99374.06
2023-04-02T01:02:38.593Z,99372.77
2023-04-02T01:05:18.031Z,99375.16
2023-04-02T01:08:07.212Z,99373.01
2023-04-02T01:11:09.861Z,99372.03
2023-04-02T01:13:57.615Z,99371.79
2023-04-02T01:16:36.585Z,99372.56
2023-04-02T01:19:29.084Z,99376.94
2023-04-02T01:22:07.316Z,99374.13
2023-04-02T01:24:38.964Z,99371.21
2023-04-02T01:27:33.335Z,99371.52
2023-04-02T01:30:03.767Z,99369.88
2023-04-02T01:32:34.073Z,99370.25
2023-04-02T01:35:02.194Z,99373.26
2023-04-02T01:37:49.533Z,99374.63
2023-04-02T01:40:20.963Z,99381.99
2023-04-02T01:43:04.296Z,99386.29
2023-04-02T01:45:35.250Z,99385.45
2023-04-02T01:48:34.303Z,99385.29
2023-04-02T01:51:07.048Z,99384.77
2023-04-02T01:53:35.987Z,99387.52
2023-04-02T01:56:05.076Z,99391.00
2023-04-02T01:58:34.374Z,99388.98
2023-04-02T02:01:13.058Z,99388.23
2023-04-02T02:03:43.215Z,99387.48
2023-04-02T02:06:16.216Z,99390.77
2023-04-02T02:09:04.635Z,99393.58
2023-04-02T02:11:34.241Z,99390.62
2023-04-02T02:14:23.020Z,99384.92
2023-04-02T02:16:56.778Z,99386.67
2023-04-02T02:19:44.027Z,99386.73
2023-04-02T02:22:32.913Z,99386.11
2023-04-02T02:25:03.023Z,99382.35
2023-04-02T02:27:51.934Z,99382.34
2023-04-02T02:30:38.605Z,99384.84
2023-04-02T02:33:26.493Z,99385.02
2023-04-02T02:36:00.956Z,99385.05
2023-04-02T02:38:48.480Z,99385.73
2023-04-02T02:41:49.068Z,99387.07
2023-04-02T02:44:37.159Z,99389.95
2023-04-02T02:47:16.927Z,99391.97
2023-04-02T02:49:47.508Z,99390.41
2023-04-02T02:52:27.307Z,99392.52
2023-04-02T02:55:05.483Z,99393.44
2023-04-02T02:58:07.173Z,99397.36
2023-04-02T03:00:41.163Z,99391.27
2023-04-02T03:03:12.784Z,99389.25
2023-04-02T03:05:42.124Z,99392.92
2023-04-02T03:08:21.767Z,99395.73
2023-04-02T03:11:02.371Z,99395.38
2023-04-02T03:13:35.863Z,99399.23
2023-04-02T03:16:29.498Z,99400.04
2023-04-02T03:19:13.237Z,99403.02
2023-04-02T03:22:03.360Z,99406.52
2023-04-02T03:24:58.643Z,99407.53
2023-04-02T03:27:35.443Z,99407.20
2023-04-02T03:30:18.648Z,99410.13
2023-04-02T03:32:47.799Z,99410.98
2023-04-02T03:35:32.991Z,99410.66
2023-04-02T03:38:07.492Z,99414.40
2023-04-02T03:40:40.271Z,99413.94
2023-04-02T03:43:16.792Z,99415.66
2023-04-02T03:45:49.328Z,99418.15
2023-04-02T03:48:27.237Z,99421.09
2023-04-02T03:51:04.572Z,99422.52
2023-04-02T03:53:32.821Z,99425.02
2023-04-02T03:56:01.228Z,99427.39
2023-04-02T03:58:47.101Z,99427.66
2023-04-02T04:01:32.125Z,99427.53
2023-04-02T04:04:17.744Z,99429.33
2023-04-02T04:06:48.084Z,99429.94
2023-04-02T04:09:38.080Z,99428.17
2023-04-02T04:12:19.456Z,99433.83
2023-04-02T04:15:05.167Z,99432.61
2023-04-02T04:18:02.564Z,99435.95
2023-04-02T04:20:40.004Z,99438.41
2023-04-02T04:23:10.833Z,99439.84
2023-04-02T04:25:40.183Z,99441.52
2023-04-02T04:28:24.479Z,99443.48
2023-04-02T04:31:09.250Z,99448.80
2023-04-02T04:33:50.727Z,99446.38
2023-04-02T04:36:28.935Z,99448.01
2023-04-02T04:39:14.747Z,99450.13
2023-04-02T04:41:46.078Z,99450.59
2023-04-02T04:44:23.756Z,99454.48
2023-04-02T04:47:08.641Z,99452.86
2023-04-02T04:50:17.161Z,99455.73
2023-04-02T04:52:45.645Z,99456.06
2023-04-02T04:55:26.538Z,99455.45
2023-04-02T04:58:04.893Z,99458.03
2023-04-02T05:00:49.967Z,99459.83
2023-04-02T05:03:47.002Z,99461.38
2023-04-02T05:06:32.065Z,99464.25
2023-04-02T05:09:08.027Z,99463.85
2023-04-02T05:11:39.946Z,99461.70
2023-04-02T05:14:12.831Z,99464.64
2023-04-02T05:16:46.273Z,99463.44
2023-04-02T05:19:24.105Z,99463.10
2023-04-02T05:22:18.205Z,99463.80
2023-04-02T05:24:54.694Z,99465.45
2023-04-02T05:27:27.532Z,99466.36
2023-04-02T05:30:13.247Z,99463.35
2023-04-02T05:32:48.023Z,99464.14
2023-04-02T05:35:17.799Z,99466.63
2023-04-02T05:37:46.806Z,99470.17
2023-04-02T05:40:40.067Z,99469.15
2023-04-02T05:43:10.737Z,99471.73
2023-04-02T05:45:42.750Z,99473.88
2023-04-02T05:48:17.780Z,99474.36
2023-04-02T05:50:49.735Z,99475.02
2023-04-02T05:53:49.159Z,99479.32
2023-04-02T05:56:17.732Z,99477.76
2023-04-02T05:58:53.476Z,99477.47
2023-04-02T06:01:36.535Z,99482.61
2023-04-02T06:04:16.518Z,99481.52
2023-04-02T06:06:48.980Z,99484.16
2023-04-02T06:09:24.577Z,99488.56
2023-04-02T06:12:04.643Z,99490.45
2023-04-02T06:14:35.214Z,99492.11
2023-04-02T06:17:04.159Z,99497.44
2023-04-02T06:19:36.224Z,99498.61
2023-04-02T06:22:10.647Z,99496.91
2023-04-02T06:24:38.965Z,99495.73
2023-04-02T06:27:07.626Z,99499.14
2023-04-02T06:29:40.910Z,99502.86
2023-04-02T06:32:14.095Z,99505.66
2023-04-02T06:34:45.513Z,99507.90
2023-04-02T06:37:30.730Z,99508.33
2023-04-02T06:40:44.974Z,99508.94
2023-04-02T06:44:05.708Z,99507.83
2023-04-02T06:46:53.465Z,99512.67
2023-04-02T06:49:33.265Z,99509.03
2023-04-02T06:52:06.040Z,99515.35
2023-04-02T06:54:34.534Z,99516.02
2023-04-02T06:57:08.493Z,99519.36
2023-04-02T06:59:44.193Z,99520.52
2023-04-02T07:02:30.744Z,99521.20
2023-04-02T07:05:06.002Z,99525.05
2023-04-02T07:07:36.188Z,99527.17
2023-04-02T07:10:09.405Z,99529.38
2023-04-02T07:12:38.239Z,99530.07
2023-04-02T07:15:16.113Z,99530.89
2023-04-02T07:17:48.697Z,99532.48
2023-04-02T07:20:31.736Z,99535.83
2023-04-02T07:23:03.706Z,99538.89
2023-04-02T07:25:32.085Z,99540.17
2023-04-02T07:28:01.599Z,99539.31
2023-04-02T07:30:31.497Z,99542.90
2023-04-02T07:33:00.158Z,99542.08
2023-04-02T07:35:28.610Z,99541.86
2023-04-02T07:37:57.294Z,99541.56
2023-04-02T07:40:26.268Z,99541.23
2023-04-02T07:42:54.423Z,99544.23
2023-04-02T07:45:22.697Z,99544.77
2023-04-02T07:47:50.897Z,99549.40
2023-04-02T07:50:19.260Z,99549.08
2023-04-02T07:52:48.248Z,99549.55
2023-04-02T07:55:18.678Z,99552.96
2023-04-02T07:57:57.398Z,99551.58
2023-04-02T08:00:26.752Z,99551.84
2023-04-02T08:02:56.868Z,99553.60
2023-04-02T08:05:26.629Z,99553.39
2023-04-02T08:07:55.723Z,99553.61
2023-04-02T08:10:24.226Z,99552.52
2023-04-02T08:12:57.501Z,99552.16
2023-04-02T08:15:25.936Z,99552.89
2023-04-02T08:17:54.435Z,99553.52
2023-04-02T08:20:23.564Z,99555.15
2023-04-02T08:22:52.458Z,99555.29
2023-04-02T08:25:20.847Z,99558.58
2023-04-02T08:27:50.041Z,99561.55
2023-04-02T08:30:18.832Z,99558.70
2023-04-02T08:32:47.925Z,99560.49
2023-04-02T08:35:16.610Z,99563.64
2023-04-02T08:37:47.343Z,99561.37
2023-04-02T08:40:23.326Z,99563.06
2023-04-02T08:42:57.251Z,99566.43
2023-04-02T08:45:42.550Z,99567.55
2023-04-02T08:48:11.268Z,99570.40
2023-04-02T08:50:41.595Z,99571.25
2023-04-02T08:53:26.412Z,99574.52
2023-04-02T08:56:05.529Z,99577.42
2023-04-02T08:58:59.568Z,99574.38
2023-04-02T09:01:37.239Z,99577.69
2023-04-02T09:04:16.866Z,99579.30
2023-04-02T09:06:47.168Z,99580.71
2023-04-02T09:09:16.028Z,99585.34
2023-04-02T09:12:03.136Z,99586.58
2023-04-02T09:14:46.138Z,99587.20
2023-04-02T09:17:22.339Z,99587.94
2023-04-02T09:20:02.291Z,99589.54
2023-04-02T09:22:32.197Z,99593.17
2023-04-02T09:25:02.434Z,99593.09
2023-04-02T09:27:36.786Z,99590.98
2023-04-02T09:30:29.841Z,99594.23
2023-04-02T09:33:02.214Z,99601.30
2023-04-02T09:35:32.604Z,99601.05
2023-04-02T09:38:09.989Z,99598.70
2023-04-02T09:40:47.379Z,99598.84
2023-04-02T09:43:18.622Z,99600.78
2023-04-02T09:45:57.553Z,99608.70
2023-04-02T09:48:30.460Z,99609.61
2023-04-02T09:51:12.454Z,99609.83
2023-04-02T09:53:49.465Z,99609.46
2023-04-02T09:56:21.775Z,99610.85
2023-04-02T09:59:13.164Z,99614.27
2023-04-02T10:01:47.993Z,99609.09
2023-04-02T10:04:31.749Z,99609.30
2023-04-02T10:06:59.949Z,99610.02
2023-04-02T10:09:30.792Z,99609.52
2023-04-02T10:12:00.047Z,99614.34
2023-04-02T10:14:38.914Z,99617.68
2023-04-02T10:17:13.274Z,99619.48
2023-04-02T10:19:43.858Z,99620.83
2023-04-02T10:22:16.692Z,99623.06
2023-04-02T10:24:46.350Z,99620.98
2023-04-02T10:27:26.346Z,99620.31
2023-04-02T10:30:02.706Z,99620.28
2023-04-02T10:32:46.553Z,99624.17
2023-04-02T10:35:29.770Z,99624.73
2023-04-02T10:38:16.655Z,99627.52
2023-04-02T10:41:21.314Z,99627.41
2023-04-02T10:44:16.684Z,99629.55
2023-04-02T10:47:02.192Z,99628.27
2023-04-02T10:50:07.390Z,99629.70
2023-04-02T10:52:40.101Z,99630.23
2023-04-02T10:55:23.541Z,99628.42
2023-04-02T10:57:52.275Z,99629.70
2023-04-02T11:00:25.356Z,99629.45
2023-04-02T11:03:07.386Z,99632.34
2023-04-02T11:05:44.512Z,99637.05
2023-04-02T11:08:22.029Z,99636.69
2023-04-02T11:11:21.538Z,99636.31
2023-04-02T11:14:06.387Z,99638.63
2023-04-02T11:16:36.993Z,99642.08
2023-04-02T11:19:16.648Z,99640.17
2023-04-02T11:22:02.690Z,99640.69
2023-04-02T11:24:38.392Z,99640.16
2023-04-02T11:27:12.490Z,99641.09
2023-04-02T11:30:16.435Z,99643.39
2023-04-02T11:32:51.233Z,99646.61
2023-04-02T11:35:31.986Z,99651.11
2023-04-02T11:38:23.943Z,99654.61
2023-04-02T11:40:54.914Z,99654.70
2023-04-02T11:43:35.980Z,99657.75
2023-04-02T11:57:56.741Z,99656.44
2023-04-02T12:00:28.097Z,99658.36
2023-04-02T12:03:25.140Z,99659.94
2023-04-02T12:05:58.537Z,99659.27
2023-04-02T12:08:36.232Z,99660.20
2023-04-02T12:11:08.951Z,99664.04
2023-04-02T12:13:38.737Z,99663.97
2023-04-02T12:16:12.537Z,99663.66
2023-04-02T12:18:53.200Z,99665.61
2023-04-02T12:21:25.822Z,99665.20
2023-04-02T12:23:54.556Z,99665.85
2023-04-02T12:26:36.462Z,99667.31
2023-04-02T12:29:20.463Z,99667.10
2023-04-02T12:31:47.665Z,99668.31
2023-04-02T12:34:19.629Z,99672.17
2023-04-02T12:37:02.138Z,99670.55
2023-04-02T12:39:30.408Z,99669.09
2023-04-02T12:42:00.803Z,99669.27
2023-04-02T12:44:29.263Z,99668.17
2023-04-02T12:46:56.074Z,99667.20
2023-04-02T12:49:37.666Z,99668.82
2023-04-02T12:52:15.694Z,99670.94
2023-04-02T12:54:53.265Z,99669.37
2023-04-02T12:57:23.301Z,99668.14
2023-04-02T12:59:51.028Z,99669.52
2023-04-02T13:02:22.583Z,99667.52
2023-04-02T13:04:57.029Z,99668.77
2023-04-02T13:07:25.289Z,99668.70
2023-04-02T13:09:53.689Z,99666.77
2023-04-02T13:12:32.291Z,99667.73
2023-04-02T13:15:00.569Z,99664.67
2023-04-02T13:17:38.057Z,99666.29
2023-04-02T13:20:31.528Z,99666.20
2023-04-02T13:22:59.285Z,99665.30
2023-04-02T13:25:35.529Z,99669.20
2023-04-02T13:28:02.668Z,99670.60
2023-04-02T13:30:35.563Z,99667.91
2023-04-02T13:33:10.455Z,99669.42
2023-04-02T13:35:37.279Z,99671.52
2023-04-02T13:38:05.645Z,99671.80
2023-04-02T13:40:33.411Z,99668.27
2023-04-02T13:43:00.695Z,99664.33
2023-04-02T13:45:36.080Z,99664.58
2023-04-02T13:48:03.684Z,99663.22
2023-04-02T13:50:32.418Z,99663.81
2023-04-02T13:53:06.499Z,99663.73
2023-04-02T13:55:38.071Z,99665.05
2023-04-02T13:58:05.510Z,99662.83
2023-04-02T14:00:37.089Z,99663.55
2023-04-02T14:03:23.647Z,99664.48
2023-04-02T14:06:12.904Z,99664.53
2023-04-02T14:09:01.458Z,99664.98
2023-04-02T14:11:59.743Z,99666.06
2023-04-02T14:15:04.377Z,99667.50
2023-04-02T14:17:36.279Z,99669.98
2023-04-02T14:20:14.744Z,99669.73
2023-04-02T14:23:10.367Z,99670.40
2023-04-02T14:25:41.608Z,99671.12
2023-04-02T14:28:26.594Z,99675.77
2023-04-02T14:31:08.790Z,99675.08
2023-04-02T14:33:42.835Z,99677.10
2023-04-02T14:36:24.891Z,99677.41
2023-04-02T14:39:17.232Z,99676.16
2023-04-02T14:41:53.057Z,99676.11
2023-04-02T14:44:23.015Z,99677.91
2023-04-02T14:46:50.173Z,99678.91
2023-04-02T14:49:29.785Z,99681.70
2023-04-02T14:52:02.656Z,99684.66
2023-04-02T14:54:37.320Z,99686.02
2023-04-02T14:57:18.174Z,99687.38
2023-04-02T15:00:32.559Z,99687.08
2023-04-02T15:03:08.430Z,99687.55
2023-04-02T15:05:42.604Z,99685.13
2023-04-02T15:08:29.908Z,99687.64
2023-04-02T15:11:20.841Z,99687.83
2023-04-02T15:13:51.850Z,99689.85
2023-04-02T15:16:20.722Z,99692.73
2023-04-02T15:18:52.019Z,99693.80
2023-04-02T15:21:18.683Z,99694.42
2023-04-02T15:24:01.111Z,99697.04
2023-04-02T15:26:34.927Z,99695.51
2023-04-02T15:29:25.931Z,99695.27
2023-04-02T15:32:03.815Z,99695.38
2023-04-02T15:34:42.670Z,99696.98
2023-04-02T15:37:38.945Z,99697.47
2023-04-02T15:40:08.472Z,99697.83
2023-04-02T15:42:39.248Z,99695.11
2023-04-02T15:45:12.268Z,99695.83
2023-04-02T15:47:47.962Z,99697.90
2023-04-02T15:50:28.820Z,99701.54
2023-04-02T15:53:00.663Z,99699.79
2023-04-02T15:55:39.789Z,99702.46
2023-04-02T15:58:12.565Z,99703.06
2023-04-02T16:00:41.561Z,99705.44
2023-04-02T16:03:26.982Z,99704.94
2023-04-02T16:06:18.562Z,99705.13
2023-04-02T16:08:58.119Z,99706.78
2023-04-02T16:11:25.563Z,99706.12
2023-04-02T16:14:27.301Z,99708.98
2023-04-02T16:16:58.311Z,99710.67
2023-04-02T16:19:27.367Z,99710.88
2023-04-02T16:21:58.146Z,99711.02
2023-04-02T16:24:25.656Z,99716.53
2023-04-02T16:27:15.170Z,99717.72
2023-04-02T16:29:54.608Z,99719.86
2023-04-02T16:32:54.274Z,99718.80
2023-04-02T16:35:43.214Z,99721.55
2023-04-02T16:38:11.526Z,99721.89
2023-04-02T16:41:06.928Z,99724.61
2023-04-02T16:44:00.196Z,99724.20
2023-04-02T16:46:38.860Z,99729.13
2023-04-02T16:49:16.341Z,99727.91
2023-04-02T16:51:45.792Z,99727.64
2023-04-02T16:54:18.700Z,99726.35
2023-04-02T16:57:04.671Z,99728.70
2023-04-02T16:59:45.657Z,99730.23
2023-04-02T17:02:23.426Z,99734.13
2023-04-02T17:05:12.665Z,99737.64
2023-04-02T17:08:07.332Z,99735.60
2023-04-02T17:10:59.117Z,99737.29
2023-04-02T17:13:42.896Z,99738.85
2023-04-02T17:16:27.626Z,99742.13
2023-04-02T17:18:57.060Z,99741.42
2023-04-02T17:21:25.746Z,99743.67
2023-04-02T17:24:17.373Z,99746.66
2023-04-02T17:26:47.184Z,99747.66
2023-04-02T17:29:19.762Z,99752.55
2023-04-02T17:31:48.717Z,99757.33
2023-04-02T17:34:16.932Z,99757.65
2023-04-02T17:36:43.715Z,99761.08
2023-04-02T17:39:21.389Z,99763.96
2023-04-02T17:41:59.426Z,99764.16
2023-04-02T17:44:51.411Z,99765.02
2023-04-02T17:47:56.080Z,99767.85
2023-04-02T17:50:29.231Z,99769.46
2023-04-02T17:53:12.772Z,99772.83
2023-04-02T17:55:50.979Z,99770.15
2023-04-02T17:58:18.005Z,99771.21
2023-04-02T18:01:07.607Z,99774.61
2023-04-02T18:03:47.140Z,99777.61
2023-04-02T18:06:21.582Z,99777.72
2023-04-02T18:09:11.062Z,99778.55
2023-04-02T18:12:10.558Z,99775.33
2023-04-02T18:15:05.344Z,99777.41
2023-04-02T18:18:04.298Z,99775.08
2023-04-02T18:20:39.151Z,99778.11
2023-04-02T18:23:21.375Z,99780.20
2023-04-02T18:26:17.803Z,99779.20
2023-04-02T18:29:28.180Z,99780.91
2023-04-02T18:31:59.523Z,99782.67
2023-04-02T18:34:45.002Z,99780.96
2023-04-02T18:37:43.906Z,99781.66
2023-04-02T18:40:23.639Z,99783.73
2023-04-02T18:43:21.566Z,99784.51
2023-04-02T18:46:04.996Z,99786.87
2023-04-02T18:48:56.263Z,99783.84
2023-04-02T18:51:25.459Z,99784.34
2023-04-02T18:54:01.003Z,99783.06
2023-04-02T18:56:28.395Z,99787.64
2023-04-02T18:59:20.608Z,99786.09
2023-04-02T19:01:49.082Z,99785.14
2023-04-02T19:04:22.063Z,99782.11
2023-04-02T19:06:56.290Z,99787.63
2023-04-02T19:09:30.604Z,99792.13
2023-04-02T19:11:57.451Z,99790.45
2023-04-02T19:14:26.659Z,99788.84
2023-04-02T19:17:19.097Z,99786.41
2023-04-02T19:19:55.368Z,99786.56
2023-04-02T19:22:50.880Z,99790.13
2023-04-02T19:25:57.455Z,99789.40
2023-04-02T19:28:37.191Z,99787.23
2023-04-02T19:31:34.097Z,99792.34
2023-04-02T19:34:23.409Z,99792.88
2023-04-02T19:37:13.600Z,99788.23
2023-04-02T19:40:02.460Z,99790.91
2023-04-02T19:42:53.677Z,99790.85
2023-04-02T19:45:32.291Z,99790.77
2023-04-02T19:48:15.203Z,99791.23
2023-04-02T19:50:43.392Z,99793.60
2023-04-02T19:53:12.591Z,99795.00
2023-04-02T19:55:40.967Z,99795.08
2023-04-02T19:58:30.340Z,99796.09
2023-04-02T20:00:57.596Z,99797.09
2023-04-02T20:03:25.148Z,99796.14
2023-04-02T20:05:56.359Z,99793.37
2023-04-02T20:08:27.442Z,99792.41
2023-04-02T20:10:55.533Z,99797.45
2023-04-02T20:13:25.733Z,99794.65
2023-04-02T20:15:58.423Z,99791.84
2023-04-02T20:18:25.974Z,99793.29
2023-04-02T20:20:54.356Z,99790.27
2023-04-02T20:23:22.633Z,99786.23
2023-04-02T20:25:53.888Z,99785.91
2023-04-02T20:28:22.412Z,99785.64
2023-04-02T20:30:49.743Z,99786.91
2023-04-02T20:33:17.713Z,99787.96
2023-04-02T20:35:51.948Z,99790.17
2023-04-02T20:38:19.478Z,99787.42
2023-04-02T20:40:52.116Z,99787.08
2023-04-02T20:43:22.060Z,99791.16
2023-04-02T20:45:55.785Z,99789.98
2023-04-02T20:48:23.528Z,99789.95
2023-04-02T20:50:53.353Z,99788.90
2023-04-02T20:53:20.397Z,99789.52
2023-04-02T20:55:47.337Z,99792.67
2023-04-02T20:58:16.572Z,99791.32
2023-04-02T21:00:44.099Z,99792.56
2023-04-02T21:03:12.429Z,99790.73
2023-04-02T21:05:46.350Z,99790.36
2023-04-02T21:08:13.390Z,99793.98
2023-04-02T21:10:44.988Z,99791.61
2023-04-02T21:13:12.754Z,99791.05
2023-04-02T21:15:42.547Z,99793.45
2023-04-02T21:18:10.816Z,99790.89
2023-04-02T21:20:38.096Z,99788.36
2023-04-02T21:23:05.038Z,99790.55
2023-04-02T21:25:31.978Z,99791.17
2023-04-02T21:27:58.921Z,99785.97
2023-04-02T21:30:26.393Z,99787.02
2023-04-02T21:32:53.968Z,99789.65
2023-04-02T21:35:20.888Z,99791.27
2023-04-02T21:37:47.624Z,99791.52
2023-04-02T21:40:14.541Z,99787.19
2023-04-02T21:42:41.709Z,99789.44
2023-04-02T21:45:09.085Z,99790.00
2023-04-02T21:47:35.902Z,99787.58
2023-04-02T21:50:03.363Z,99783.80
2023-04-02T21:52:30.525Z,99783.31
2023-04-02T21:54:57.263Z,99779.09
2023-04-02T21:57:24.144Z,99779.56
2023-04-02T21:59:51.004Z,99778.70
2023-04-02T22:02:17.799Z,99780.08
2023-04-02T22:04:44.951Z,99777.41
2023-04-02T22:07:11.692Z,99778.98
2023-04-02T22:09:38.463Z,99778.99
2023-04-02T22:12:07.426Z,99780.86
2023-04-02T22:14:34.271Z,99782.17
2023-04-02T22:17:02.917Z,99781.08
2023-04-02T22:19:32.568Z,99777.61
2023-04-02T22:21:59.712Z,99781.70
2023-04-02T22:24:28.505Z,99783.30
2023-04-02T22:26:56.989Z,99781.10
2023-04-02T22:29:23.726Z,99784.39
2023-04-02T22:31:51.597Z,99780.60
2023-04-02T22:34:18.536Z,99784.06
2023-04-02T22:36:45.280Z,99781.88
2023-04-02T22:39:12.847Z,99782.44
2023-04-02T22:41:39.833Z,99779.80
2023-04-02T22:44:06.814Z,99777.18
2023-04-02T22:46:34.102Z,99778.13
2023-04-02T22:49:00.902Z,99775.98
2023-04-02T22:51:28.520Z,99769.92
2023-04-02T22:53:55.818Z,99772.45
2023-04-02T22:56:26.009Z,99772.25
2023-04-02T22:58:52.699Z,99775.79
2023-04-02T23:01:22.061Z,99773.78
2023-04-02T23:03:49.117Z,99774.53
2023-04-02T23:06:16.857Z,99772.45
2023-04-02T23:08:43.758Z,99769.66
2023-04-02T23:11:18.088Z,99764.20
2023-04-02T23:13:46.665Z,99765.89
2023-04-02T23:16:14.066Z,99766.91
2023-04-02T23:18:46.806Z,99762.98
2023-04-02T23:21:13.962Z,99763.37
2023-04-02T23:23:40.903Z,99760.62
2023-04-02T23:26:12.665Z,99758.34
2023-04-02T23:28:39.819Z,99755.16
2023-04-02T23:31:08.664Z,99755.07
2023-04-02T23:33:35.637Z,99753.77
2023-04-02T23:36:10.610Z,99751.41
2023-04-02T23:38:39.576Z,99753.02
2023-04-02T23:41:06.403Z,99753.27
2023-04-02T23:43:33.261Z,99749.03
2023-04-02T23:46:00.718Z,99748.92
2023-04-02T23:48:28.067Z,99749.17
2023-04-02T23:50:55.220Z,99750.34
2023-04-02T23:53:23.500Z,99748.23
2023-04-02T23:55:54.109Z,99745.31
2023-04-02T23:58:21.793Z,99746.76
